Etusivu
METAR-TAF:

METAR-TAF

Lentoasemat :

Pell City, Alabama, Yhdysvallat

Leveyspiiri: 33-33-32N, Pituuspiiri: 086-14-57W, korkeus merenpinnasta: 148 m

Tämänhetkinen sää

Tämä raportti tehtiin 8 minuuttia sitten, kello 14.15 UTC
Tuuli 7 kn koillisesta
Lämpötila 15°C
Kosteus 100%
Ilmanpaine 1013 hPa
Näkyvyys: 4.8 km
Hajanaisia pilviä 600 ft:n korkeudessa
Pilvistä 1200 ft:n korkeudessa
utua

METAR: KPLR 191415Z AUTO 04007KT 3SM BR SCT006 OVC012 15/15 A2990 RMK A01

Aika: 09:23 (14:23 UTC)


TAF: puuttuu

Säähavainnot ja -ennusteet yli 4000 lentoasemalta (METAR- ja TAF-raportit).

Käytössä olevat sääasemat on merkitty karttaan keltaisilla ja punaisilla pisteillä.

Aseta hiiri pisteen päälle nähdäksesi sääaseman nimen.

Klikkaa sitten nähdäksesi säähavainnot ja -ennusteet.

Kartan vaihtaminen: klikkaa mustalla rastilla varustettuja vihreitä pisteitä, niin voit zoomata sisään; viivalla varustettua vihreää pistettä, niin voit zoomata ulos tai vihreitä nuolia, niin pääset viereisille kartoille.


METAR-TAF: